Wilmer, Texas
Current Conditions -  °F | °C
As of 8:55 PM on Monday 22 Dec 2014 (Local Time) from KLNC Reporting Station
Clear Clear  
Wind Chill: 55°   Ceiling: Unl
Heat Index: 55°   Visibility: 10mi
Dew Point: 43°   Wind: 5mph
Humidity: 66%   Direction: 280°W
Pressure: 29.71"   Gusts: NA
Location:  32.59°N, 96.69°W
Report Text: KLNC 230255Z AUTO 28004KT 10SM CLR 13/06 A2971 RMK AO2 T01250063
Loading
Personal Weather Stations






























Interactive Weather Map New forecast layout! Learn more

10-Day Weather Forecast

Advertisements
Track Severe Weather on mobile